Latest Weather Observations for Ballina

IDN60801

Issued at 1:12 am EDT Monday 26 October 2020 (issued every 10 minutes, with the page automatically refreshed every 10 minutes)

About weather observations | Map of weather stations | Latest weather observations for NSW | Other Formats
Station Details ID: 058198 Name: BALLINA AIRPORT AWS Lat: -28.84 Lon: 153.56 Height: 1.3 m
Data from the previous 72 hours. | See also: Recent months at Ballina
Date/Time
EDT
Temp
°C
App
Temp
°C
Dew
Point
°C
Rel
Hum
%
Delta-T
°C
Wind Press
QNH
hPa
Press
MSL
hPa
Rain since
9am
mm
Dir  Spd
km/h
Gust
km/h
Spd
kts
Gust
kts
26/01:09am 19.1 20.0 18.3 95 0.5 WSW 11 13 6 7 1011.0 1011.0 9.8
26/01:00am 19.2 19.7 18.4 95 0.5 WSW 13 17 7 9 1011.3 1011.3 9.2
26/12:57am 19.2 19.7 18.4 95 0.5 WSW 13 17 7 9 1011.4 1011.4 9.0
26/12:48am 19.3 19.9 18.5 95 0.5 WNW 13 17 7 9 1011.6 1011.6 8.2
26/12:30am 19.5 19.4 18.7 95 0.5 WSW 17 22 9 12 1011.5 1011.5 6.4
26/12:13am 20.1 20.3 18.6 91 0.9 SW 15 20 8 11 1011.1 1011.1 1.2
26/12:00am 20.5 20.9 18.1 86 1.5 SW 13 19 7 10 1011.1 1011.1 0.4
 
Date/Time
EDT
Temp
°C
App
Temp
°C
Dew
Point
°C
Rel
Hum
%
Delta-T
°C
Wind Press
QNH
hPa
Press
MSL
hPa
Rain since
9am
mm
Dir  Spd
km/h
Gust
km/h
Spd
kts
Gust
kts
25/11:30pm 20.5 21.7 17.3 82 2.0 NW 7 13 4 7 1010.9 1010.9 0.4
25/11:00pm 20.8 22.1 17.2 80 2.2 WSW 6 9 3 5 1010.9 1010.9 0.4
25/10:30pm 21.0 22.2 16.8 77 2.6 WNW 6 11 3 6 1010.8 1010.8 0.4
25/10:00pm 20.8 20.8 17.2 80 2.2 WNW 13 19 7 10 1010.6 1010.6 0.4
25/09:30pm 20.3 19.7 17.5 84 1.7 NNW 17 20 9 11 1010.4 1010.4 0.4
25/09:00pm 20.7 17.9 17.3 81 2.1 N 28 37 15 20 1009.9 1009.9 0.4
25/08:30pm 20.5 19.8 17.3 82 2.0 N 17 24 9 13 1009.5 1009.5 0.4
25/08:00pm 20.2 19.7 16.8 81 2.1 NW 15 24 8 13 1009.7 1009.7 0.4
25/07:30pm 20.2 18.4 17.0 82 1.9 N 22 32 12 17 1008.8 1008.8 0.4
25/07:00pm 20.0 17.2 17.2 84 1.7 N 28 39 15 21 1008.4 1008.4 0.4
25/06:30pm 21.7 20.0 18.1 80 2.2 NNE 24 33 13 18 1008.6 1008.6 0.2
25/06:26pm 22.2 21.6 19.7 86 1.6 NNE 22 32 12 17 1008.6 1008.6 0.2
25/06:16pm 22.9 22.2 20.2 85 1.7 NNE 24 35 13 19 1008.4 1008.4 0.2
25/06:00pm 23.2 23.0 20.5 85 1.8 NNE 22 28 12 15 1008.3 1008.3 0.0
25/05:30pm 23.2 24.7 20.5 85 1.8 NNE 13 17 7 9 1007.9 1007.9 0.0
25/05:00pm 23.3 23.0 20.4 84 1.9 N 22 35 12 19 1007.2 1007.2 0.0
25/04:30pm 23.6 23.1 20.7 84 1.9 NNE 24 35 13 19 1006.8 1006.8 0.0
25/04:00pm 23.7 23.2 21.4 87 1.5 N 26 39 14 21 1007.5 1007.5 0.0
25/03:30pm 23.4 22.6 20.9 86 1.6 N 26 39 14 21 1007.3 1007.3 0.0
25/03:00pm 23.9 24.8 20.8 83 2.0 NNE 17 26 9 14 1007.8 1007.8 0.0
25/02:30pm 25.6 23.9 19.7 70 3.8 NNE 28 39 15 21 1007.7 1007.7 0.0
25/02:00pm 26.3 24.8 20.2 69 4.0 NE 28 37 15 20 1008.2 1008.2 0.0
25/01:30pm 27.7 27.2 20.8 66 4.6 NE 24 33 13 18 1008.6 1008.6 0.0
25/01:00pm 27.6 28.1 21.9 71 3.8 NE 22 32 12 17 1009.0 1009.0 0.0
25/12:30pm 27.2 27.7 21.9 73 3.6 NE 22 30 12 16 1009.3 1009.3 0.0
25/12:00pm 25.8 25.9 20.4 72 3.5 NE 20 28 11 15 1009.6 1009.6 0.0
25/11:30am 26.1 26.8 20.4 71 3.7 NNE 17 26 9 14 1009.9 1009.9 0.0
25/11:00am 26.0 26.9 19.2 66 4.4 N 13 24 7 13 1010.2 1010.2 0.0
25/10:30am 26.4 26.9 20.0 68 4.2 NNE 17 28 9 15 1010.2 1010.2 0.0
25/10:00am 25.2 25.2 19.8 72 3.5 NE 19 26 10 14 1010.3 1010.3 0.0
25/09:30am 24.7 25.2 18.4 68 4.0 NNE 13 20 7 11 1010.4 1010.4 0.0
25/09:00am 24.0 25.4 19.5 76 2.9 NNE 11 15 6 8 1010.4 1010.4 8.8
25/08:30am 23.2 23.9 18.9 77 2.7 N 13 17 7 9 1010.2 1010.2 8.8
25/08:00am 22.2 23.5 19.4 84 1.8 N 11 19 6 10 1010.2 1010.2 8.8
25/07:30am 20.6 22.4 18.7 89 1.2 N 7 13 4 7 1009.8 1009.8 8.8
25/07:00am 19.5 20.9 18.7 95 0.5 N 9 11 5 6 1009.5 1009.5 8.8
25/06:30am 18.5 20.0 18.0 97 0.3 NNE 7 11 4 6 1009.2 1009.2 8.8
25/06:26am 18.4 19.5 17.9 97 0.3 NNE 9 11 5 6 1009.2 1009.2 8.8
25/06:00am 17.3 19.6 16.7 96 0.4 CALM 0 0 0 0 1008.8 1008.8 8.8
25/05:30am 17.6 19.6 17.0 96 0.4 W 2 6 1 3 1008.6 1008.6 8.8
25/05:00am 17.6 18.2 16.8 95 0.5 W 9 9 5 5 1008.5 1008.5 8.8
25/04:43am 18.1 20.5 17.1 94 0.6 CALM 0 0 0 0 1008.2 1008.2 8.8
25/04:30am 18.3 20.4 17.3 94 0.6 NNE 2 7 1 4 1008.1 1008.1 8.8
25/04:00am 18.6 20.1 17.6 94 0.6 W 6 11 3 6 1008.3 1008.3 8.8
25/03:30am 19.0 20.9 17.7 92 0.8 S 4 9 2 5 1008.0 1008.0 8.8
25/03:00am 19.6 21.0 17.9 90 1.0 N 7 13 4 7 1008.0 1008.0 8.8
25/02:30am 19.6 19.4 17.7 89 1.2 N 15 20 8 11 1008.0 1008.0 8.8
25/02:00am 19.5 18.9 17.6 89 1.2 N 17 24 9 13 1008.0 1008.0 8.8
25/01:30am 19.5 18.5 18.0 91 0.9 N 20 26 11 14 1008.2 1008.2 8.8
25/01:00am 19.4 19.9 18.4 94 0.6 NNE 13 17 7 9 1008.6 1008.6 8.8
25/12:30am 19.3 19.9 18.5 95 0.5 NNE 13 19 7 10 1009.1 1009.1 8.8
25/12:00am 19.4 19.6 18.6 95 0.5 NE 15 19 8 10 1009.0 1009.0 8.8
 
Date/Time
EDT
Temp
°C
App
Temp
°C
Dew
Point
°C
Rel
Hum
%
Delta-T
°C
Wind Press
QNH
hPa
Press
MSL
hPa
Rain since
9am
mm
Dir  Spd
km/h
Gust
km/h
Spd
kts
Gust
kts
24/11:30pm 19.6 20.6 18.6 94 0.6 NNE 11 13 6 7 1009.2 1009.2 8.8
24/11:00pm 19.7 20.7 18.7 94 0.6 N 11 17 6 9 1009.7 1009.7 8.8
24/10:47pm 19.7 20.0 18.7 94 0.6 NNE 15 22 8 12 1009.8 1009.8 8.8
24/10:30pm 19.8 19.7 18.8 94 0.6 N 17 24 9 13 1010.1 1010.1 8.6
24/10:00pm 19.9 19.5 18.9 94 0.6 NNE 19 28 10 15 1010.3 1010.3 8.6
24/09:30pm 20.0 19.7 19.2 95 0.5 NNE 19 28 10 15 1010.5 1010.5 8.6
24/09:22pm 20.0 20.1 19.2 95 0.5 NNE 17 28 9 15 1010.6 1010.6 8.6
24/09:00pm 19.8 19.8 19.0 95 0.5 NNE 17 26 9 14 1010.4 1010.4 8.6
24/08:30pm 19.8 19.3 19.0 95 0.5 N 20 33 11 18 1010.3 1010.3 8.0
24/08:23pm 19.8 18.9 19.0 95 0.5 N 22 33 12 18 1010.1 1010.1 8.0
24/08:00pm 19.9 19.4 19.1 95 0.5 NNE 20 30 11 16 1009.8 1009.8 8.0
24/07:46pm 19.9 20.0 19.1 95 0.5 NNE 17 28 9 15 1009.8 1009.8 8.0
24/07:30pm 19.9 18.9 18.9 94 0.6 NNE 22 35 12 19 1009.7 1009.7 8.0
24/07:00pm 20.5 20.5 19.7 95 0.5 NNE 19 24 10 13 1009.6 1009.6 7.8
24/06:30pm 20.8 21.7 20.0 95 0.5 NNE 15 20 8 11 1009.5 1009.5 7.6
24/06:00pm 20.8 21.6 19.8 94 0.6 NNE 15 20 8 11 1009.4 1009.4 7.2
24/05:30pm 21.0 21.5 20.0 94 0.6 NNE 17 24 9 13 1009.7 1009.7 6.6
24/05:00pm 21.3 21.9 20.3 94 0.6 NNE 17 22 9 12 1009.6 1009.6 6.0
24/04:30pm 21.5 22.6 20.5 94 0.6 NNE 15 20 8 11 1009.5 1009.5 5.4
24/04:00pm 21.2 21.7 20.0 93 0.8 NNE 17 22 9 12 1009.7 1009.7 4.8
24/03:30pm 21.3 21.7 19.8 91 1.0 N 17 22 9 12 1010.0 1010.0 3.6
24/03:00pm 21.7 22.7 20.3 92 0.9 N 15 24 8 13 1010.1 1010.1 2.4
24/02:30pm 21.9 22.5 20.2 90 1.1 NNE 17 26 9 14 1010.2 1010.2 1.8
24/02:00pm 22.2 22.3 19.9 87 1.5 N 19 26 10 14 1010.5 1010.5 1.0
24/01:30pm 23.6 23.8 19.3 77 2.7 N 17 28 9 15 1010.5 1010.5 1.0
24/01:00pm 24.1 24.1 19.0 73 3.2 N 17 28 9 15 1010.7 1010.7 1.0
24/12:30pm 24.0 24.3 19.5 76 2.9 N 17 24 9 13 1011.1 1011.1 1.0
24/12:00pm 24.0 23.4 18.9 73 3.2 N 20 30 11 16 1011.2 1011.2 1.0
24/11:30am 24.0 23.0 18.9 73 3.2 N 22 33 12 18 1011.5 1011.5 1.0
24/11:00am 23.4 23.6 19.3 78 2.6 N 17 24 9 13 1011.9 1011.9 1.0
24/10:30am 22.9 23.3 19.9 83 1.9 N 17 26 9 14 1012.2 1012.2 1.0
24/10:00am 21.8 22.7 20.1 90 1.1 N 15 19 8 10 1012.5 1012.5 1.0
24/09:30am 21.2 22.2 19.5 90 1.1 N 13 17 7 9 1012.9 1012.9 1.0
24/09:14am 20.9 21.7 19.0 89 1.2 N 13 20 7 11 1013.0 1013.0 1.0
24/09:00am 21.2 21.2 18.9 87 1.4 N 17 24 9 13 1013.1 1013.1 0.2
24/08:30am 22.1 21.2 18.1 78 2.5 N 20 32 11 17 1012.9 1012.9 0.0
24/08:00am 22.3 22.1 18.5 79 2.4 NNE 17 24 9 13 1013.0 1013.0 0.0
24/07:30am 22.3 22.0 18.3 78 2.5 N 17 24 9 13 1013.0 1013.0 0.0
24/07:00am 21.8 21.4 18.0 79 2.4 N 17 22 9 12 1012.7 1012.7 0.0
24/06:30am 21.8 20.5 18.2 80 2.2 N 22 35 12 19 1012.3 1012.3 0.0
24/06:00am 21.3 21.3 18.1 82 2.0 N 15 24 8 13 1011.5 1011.5 0.0
24/05:30am 21.2 21.7 18.4 84 1.7 N 13 20 7 11 1011.5 1011.5 0.0
24/05:00am 21.3 21.0 18.3 83 1.9 N 17 22 9 12 1011.4 1011.4 0.0
24/04:30am 21.4 20.6 18.4 83 1.9 N 20 30 11 16 1011.1 1011.1 0.0
24/04:00am 21.3 21.0 18.3 83 1.9 N 17 24 9 13 1011.1 1011.1 0.0
24/03:30am 21.1 20.3 18.1 83 1.9 NNE 19 30 10 16 1011.1 1011.1 0.0
24/03:00am 21.3 20.8 17.9 81 2.1 NNE 17 24 9 13 1011.2 1011.2 0.0
24/02:30am 21.5 20.5 17.9 80 2.2 N 20 30 11 16 1011.2 1011.2 0.0
24/02:00am 21.5 20.7 17.9 80 2.2 N 19 28 10 15 1011.6 1011.6 0.0
24/01:30am 21.6 21.3 18.2 81 2.1 N 17 26 9 14 1012.4 1012.4 0.0
24/01:00am 21.8 21.2 18.4 81 2.1 N 19 28 10 15 1013.0 1013.0 0.0
24/12:30am 21.6 20.9 18.2 81 2.1 NNE 19 26 10 14 1012.9 1012.9 0.0
24/12:00am 21.6 20.8 18.4 82 2.0 N 20 28 11 15 1013.1 1013.1 0.0
 
Date/Time
EDT
Temp
°C
App
Temp
°C
Dew
Point
°C
Rel
Hum
%
Delta-T
°C
Wind Press
QNH
hPa
Press
MSL
hPa
Rain since
9am
mm
Dir  Spd
km/h
Gust
km/h
Spd
kts
Gust
kts
23/11:30pm 21.5 20.2 18.1 81 2.1 N 22 37 12 20 1013.0 1013.0 0.0
23/11:00pm 21.4 20.7 18.2 82 2.0 N 19 28 10 15 1013.3 1013.3 0.0
23/10:30pm 21.6 20.9 18.2 81 2.1 N 19 32 10 17 1013.2 1013.2 0.0
23/10:00pm 21.6 20.7 18.2 81 2.1 N 20 33 11 18 1013.2 1013.2 0.0
23/09:30pm 21.6 20.6 18.0 80 2.2 NNE 20 32 11 17 1012.9 1012.9 0.0
23/09:00pm 21.7 20.8 18.1 80 2.2 NNE 20 32 11 17 1013.0 1013.0 0.0
23/08:30pm 21.6 21.2 18.0 80 2.2 NNE 17 26 9 14 1013.3 1013.3 0.0
23/08:00pm 21.6 20.8 18.0 80 2.2 NNE 19 26 10 14 1013.2 1013.2 0.0
23/07:30pm 21.6 21.2 18.0 80 2.2 NNE 17 26 9 14 1013.0 1013.0 0.0
23/07:00pm 22.1 20.8 18.1 78 2.5 NNE 22 35 12 19 1012.7 1012.7 0.0
23/06:30pm 22.6 20.9 18.2 76 2.8 NNE 24 35 13 19 1012.2 1012.2 0.0
23/06:00pm 22.8 21.2 18.3 76 2.8 NNE 24 35 13 19 1011.8 1011.8 0.0
23/05:30pm 23.3 21.4 18.6 75 3.0 NNE 26 41 14 22 1012.0 1012.0 0.0
23/05:00pm 23.5 20.8 18.4 73 3.2 NE 30 41 16 22 1012.0 1012.0 0.0
23/04:30pm 24.1 21.8 18.5 71 3.5 NNE 28 44 15 24 1012.2 1012.2 0.0
23/04:00pm 23.9 20.6 18.3 71 3.5 NE 33 44 18 24 1012.4 1012.4 0.0
23/03:30pm 25.0 22.3 18.4 66 4.2 NE 30 39 16 21 1012.8 1012.8 0.0
23/03:00pm 25.2 23.1 18.9 68 4.0 NNE 28 39 15 21 1013.3 1013.3 0.0
23/02:30pm 24.7 21.6 18.9 70 3.7 NE 33 46 18 25 1013.6 1013.6 0.0
23/02:00pm 25.2 22.7 18.9 68 4.0 NE 30 39 16 21 1013.8 1013.8 0.0
23/01:30pm 24.8 21.9 18.0 66 4.3 NE 30 41 16 22 1014.1 1014.1 0.0
23/01:00pm 24.8 21.5 18.3 67 4.1 NE 33 41 18 22 1014.3 1014.3 0.0
23/12:30pm 24.7 21.5 18.2 67 4.1 NE 32 41 17 22 1014.5 1014.5 0.0
23/12:00pm 25.4 23.2 18.6 66 4.3 NE 28 35 15 19 1014.9 1014.9 0.0
23/11:30am 24.8 22.0 18.3 67 4.1 NE 30 39 16 21 1015.3 1015.3 0.0
23/11:00am 24.8 22.8 18.3 67 4.1 NE 26 35 14 19 1015.7 1015.7 0.0
23/10:30am 23.6 22.5 17.3 67 3.9 NE 19 24 10 13 1016.1 1016.1 0.0
23/10:00am 24.8 24.3 18.7 69 3.9 NE 19 26 10 14 1016.1 1016.1 0.0
23/09:30am 23.5 23.5 17.3 68 3.8 NNE 13 19 7 10 1016.0 1016.0 0.0
23/09:00am 23.4 24.0 17.6 70 3.6 NNE 11 17 6 9 1016.0 1016.0 0.4
23/08:30am 22.2 23.1 16.7 71 3.4 N 7 13 4 7 1016.0 1016.0 0.4
23/08:00am 21.1 23.0 16.7 76 2.7 NNW 2 6 1 3 1016.0 1016.0 0.4
23/07:30am 19.4 21.6 16.4 83 1.8 CALM 0 0 0 0 1015.6 1015.6 0.4
23/07:00am 17.4 19.5 16.3 93 0.7 CALM 0 0 0 0 1015.5 1015.5 0.4
23/06:30am 15.8 17.4 14.8 94 0.6 CALM 0 0 0 0 1015.1 1015.1 0.4
23/06:00am 16.0 17.6 14.9 93 0.6 CALM 0 0 0 0 1014.6 1014.6 0.4
23/05:30am 16.2 16.7 15.1 93 0.6 NW 6 7 3 4 1014.5 1014.5 0.4
23/05:00am 17.6 19.6 15.9 90 1.0 CALM 0 0 0 0 1014.5 1014.5 0.4
23/04:30am 18.2 20.4 16.4 89 1.1 CALM 0 0 0 0 1014.6 1014.6 0.4
23/04:00am 18.1 20.3 16.4 90 1.0 CALM 0 0 0 0 1014.7 1014.7 0.4
23/03:30am 18.1 20.2 16.3 89 1.1 CALM 0 0 0 0 1014.7 1014.7 0.4
23/03:00am 18.2 20.3 16.2 88 1.2 CALM 0 0 0 0 1014.9 1014.9 0.4
23/02:30am 18.1 20.1 16.1 88 1.2 CALM 0 4 0 2 1015.2 1015.2 0.4
23/02:00am 18.4 19.4 16.4 88 1.2 N 6 7 3 4 1015.4 1015.4 0.4
23/01:30am 18.2 19.1 16.2 88 1.2 N 6 7 3 4 1015.5 1015.5 0.4

Other formats

Comma delimited format used in spreadsheet applications
http://www.bom.gov.au/fwo/IDN60801/IDN60801.94596.axf

JavaScript Object Notation format (JSON) in row-major order
http://www.bom.gov.au/fwo/IDN60801/IDN60801.94596.json

Data quality

Most of these data are generated automatically and are frequently updated. Quality checks on data are not normally performed. It is possible for incorrect values to appear. Refer to information at About Latest Weather Observations and please check the disclaimer before using these data.